Time;durP1;ratioP1;P1;durP2;ratioP2;P2;SDS_P1;SDS_P2;PMS_P1;PMS_P2;Temp;Humidity;BMP_temperature;BMP_pressure;BME280_temperature;BME280_humidity;BME280_pressure;Samples;Min_cycle;Max_cycle;Signal;HPM_P1;HPM_P2
2022/06/10 00:02:05;;;;;;;11.32;5.60;;;;;;;19.74;100.00;101934.75;7395053;19;20103;-45
2022/06/10 00:04:34;;;;;;;10.65;5.57;;;;;;;19.79;100.00;101934.50;7395007;19;20027;-44
2022/06/10 00:07:04;;;;;;;8.52;4.90;;;;;;;19.58;100.00;101934.88;7394225;19;20371;-44
2022/06/10 00:09:33;;;;;;;9.93;5.22;;;;;;;19.37;100.00;101929.13;7394498;19;20007;-44
2022/06/10 00:12:05;;;;;;;10.90;6.00;;;;;;;19.29;100.00;101926.97;7394850;19;20340;-45
2022/06/10 00:14:33;;;;;;;14.67;6.27;;;;;;;19.53;100.00;101923.72;7395045;19;20018;-44
2022/06/10 00:17:02;;;;;;;9.77;5.47;;;;;;;19.62;100.00;101935.56;7395260;19;20025;-45
2022/06/10 00:19:31;;;;;;;8.75;5.95;;;;;;;19.48;100.00;101933.78;7393436;19;20015;-44
2022/06/10 00:22:01;;;;;;;7.18;5.20;;;;;;;19.32;100.00;101931.25;7394685;19;20483;-45
2022/06/10 00:24:30;;;;;;;12.20;5.32;;;;;;;19.28;100.00;101929.75;7394274;19;20010;-44
2022/06/10 00:26:59;;;;;;;10.27;5.50;;;;;;;19.31;100.00;101929.53;7393475;19;20018;-44
2022/06/10 00:29:31;;;;;;;12.80;5.47;;;;;;;19.57;100.00;101922.53;7393669;19;20011;-45
2022/06/10 00:32:00;;;;;;;12.98;5.70;;;;;;;19.13;100.00;101920.94;7394466;19;20014;-44
2022/06/10 00:34:29;;;;;;;10.52;5.32;;;;;;;19.31;100.00;101926.88;7394426;19;20472;-45
2022/06/10 00:36:58;;;;;;;9.88;5.43;;;;;;;19.37;100.00;101921.16;7394499;19;20337;-45
2022/06/10 00:39:27;;;;;;;8.93;5.65;;;;;;;19.65;100.00;101925.56;7393811;19;20021;-44
2022/06/10 00:41:56;;;;;;;10.13;5.45;;;;;;;19.53;100.00;101921.91;7393767;19;20507;-44
2022/06/10 00:44:40;;;;;;;9.40;5.70;;;;;;;19.49;100.00;101927.53;7394043;19;20025;-45
2022/06/10 00:47:18;;;;;;;10.25;5.20;;;;;;;19.38;100.00;101919.38;7393325;19;20026;-44
2022/06/10 00:49:52;;;;;;;10.50;5.50;;;;;;;19.15;100.00;101922.53;7392807;19;20049;-44
2022/06/10 00:52:28;;;;;;;11.68;5.65;;;;;;;19.15;100.00;101922.53;7394186;19;20011;-44
2022/06/10 00:54:58;;;;;;;10.68;5.40;;;;;;;19.35;100.00;101918.59;7393597;19;20025;-44
2022/06/10 00:57:33;;;;;;;10.77;5.70;;;;;;;19.25;100.00;101914.00;7393140;19;20018;-44
2022/06/10 01:00:08;;;;;;;11.15;5.70;;;;;;;18.96;100.00;101922.00;7393530;19;20041;-45
2022/06/10 01:02:38;;;;;;;13.52;5.55;;;;;;;19.10;100.00;101916.69;7393990;19;20014;-44
2022/06/10 01:05:11;;;;;;;10.52;5.07;;;;;;;19.27;100.00;101920.06;7393119;19;20022;-45
2022/06/10 01:07:45;;;;;;;9.80;5.63;;;;;;;19.23;100.00;101914.09;7392245;19;20580;-44
2022/06/10 01:10:17;;;;;;;12.55;6.22;;;;;;;18.86;100.00;101921.69;7392514;19;20018;-44
2022/06/10 01:13:10;;;;;;;10.50;5.93;;;;;;;18.95;100.00;101913.16;7392857;19;20045;-45
2022/06/10 01:15:48;;;;;;;12.93;6.25;;;;;;;18.74;100.00;101917.09;7391822;19;20034;-45
2022/06/10 01:18:44;;;;;;;12.77;5.70;;;;;;;18.74;100.00;101917.09;7390250;19;20033;-44
2022/06/10 01:21:38;;;;;;;10.00;5.38;;;;;;;18.75;100.00;101910.84;7393870;19;20010;-44
2022/06/10 01:24:49;;;;;;;11.43;5.97;;;;;;;18.78;100.00;101911.53;7392770;19;20027;-45
2022/06/10 01:27:50;;;;;;;13.02;5.20;;;;;;;18.66;100.00;101914.94;7396281;19;20022;-44
2022/06/10 01:30:28;;;;;;;8.88;4.82;;;;;;;18.61;100.00;101912.56;7392636;19;20364;-45
2022/06/10 01:33:15;;;;;;;8.52;4.85;;;;;;;18.68;100.00;101913.91;7392339;19;20017;-45
2022/06/10 01:35:48;;;;;;;9.23;5.10;;;;;;;18.69;100.00;101912.09;7392318;19;20025;-45
2022/06/10 01:38:25;;;;;;;10.50;5.03;;;;;;;18.58;100.00;101914.53;7391815;19;20018;-45
2022/06/10 01:41:04;;;;;;;8.48;5.00;;;;;;;18.69;100.00;101906.78;7390897;19;20022;-44
2022/06/10 01:43:44;;;;;;;11.93;5.90;;;;;;;18.83;100.00;101904.13;7392261;19;20090;-45
2022/06/10 01:46:20;;;;;;;12.52;5.55;;;;;;;18.80;100.00;101906.97;7390313;19;20018;-45
2022/06/10 01:48:58;;;;;;;9.20;5.40;;;;;;;18.99;100.00;101916.50;7390243;19;20061;-45
2022/06/10 01:51:32;;;;;;;10.00;5.07;;;;;;;18.85;100.00;101910.22;7391755;19;20087;-44
2022/06/10 01:54:07;;;;;;;8.73;5.15;;;;;;;18.91;100.00;101908.13;7391761;19;20024;-44
2022/06/10 01:56:42;;;;;;;9.20;5.45;;;;;;;18.81;100.00;101908.69;7391448;19;20372;-44
2022/06/10 01:59:18;;;;;;;9.15;5.72;;;;;;;18.77;100.00;101906.28;7390661;19;20015;-45
2022/06/10 02:01:51;;;;;;;12.57;5.25;;;;;;;18.53;100.00;101903.38;7392257;19;20014;-45
2022/06/10 02:04:28;;;;;;;10.02;5.53;;;;;;;18.31;100.00;101908.16;7391725;19;20002;-45
2022/06/10 02:07:01;;;;;;;9.38;6.05;;;;;;;18.54;100.00;101910.38;7391802;19;20026;-45
2022/06/10 02:09:36;;;;;;;8.93;5.65;;;;;;;18.59;100.00;101909.13;7389653;19;20015;-45
2022/06/10 02:12:10;;;;;;;14.90;5.90;;;;;;;18.48;100.00;101909.81;7391752;19;20077;-44
2022/06/10 02:14:42;;;;;;;12.18;6.18;;;;;;;18.55;100.00;101907.59;7391629;19;20015;-45
2022/06/10 02:17:16;;;;;;;12.98;5.75;;;;;;;18.35;100.00;101900.84;7392044;19;20025;-45
2022/06/10 02:19:53;;;;;;;11.77;5.85;;;;;;;18.48;100.00;101914.25;7390645;19;20019;-44
2022/06/10 02:22:27;;;;;;;12.30;5.90;;;;;;;18.48;100.00;101919.53;7390593;19;20376;-43
2022/06/10 02:25:01;;;;;;;11.20;5.75;;;;;;;18.44;100.00;101916.25;7391969;19;20081;-44
2022/06/10 02:27:34;;;;;;;10.98;6.30;;;;;;;18.29;100.00;101914.50;7391869;19;20357;-44
2022/06/10 02:30:08;;;;;;;;;;;;;;;18.40;100.00;101920.03;7398444;19;20041;-44
2022/06/10 02:32:39;;;;;;;11.35;5.95;;;;;;;18.39;100.00;101915.66;7399708;19;19922;-45
2022/06/10 02:35:13;;;;;;;12.43;6.68;;;;;;;18.40;100.00;101917.38;7398334;19;20058;-44
2022/06/10 02:37:50;;;;;;;9.48;6.22;;;;;;;18.35;100.00;101916.78;7399460;19;20240;-43
2022/06/10 02:40:28;;;;;;;8.88;5.88;;;;;;;18.34;100.00;101917.75;7398545;19;20018;-45
2022/06/10 02:43:09;;;;;;;11.43;6.38;;;;;;;18.30;100.00;101924.19;7398200;19;20010;-45
2022/06/10 02:45:53;;;;;;;8.93;5.35;;;;;;;18.22;100.00;101921.97;7398355;19;20006;-45
2022/06/10 02:48:32;;;;;;;12.38;6.32;;;;;;;18.06;100.00;101919.34;7399185;19;20015;-45
2022/06/10 02:51:04;;;;;;;10.20;5.43;;;;;;;18.07;100.00;101918.41;7400316;19;20017;-47
2022/06/10 02:53:33;;;;;;;11.40;5.60;;;;;;;18.25;100.00;101921.78;7399225;19;20025;-46
2022/06/10 02:56:02;;;;;;;8.73;5.47;;;;;;;18.21;100.00;101925.56;7396571;19;20014;-46
2022/06/10 03:01:25;;;;;;;14.07;5.90;;;;;;;18.35;100.00;101927.38;7399813;19;20025;-46
2022/06/10 03:04:15;;;;;;;10.73;6.22;;;;;;;18.36;100.00;101926.44;7401031;19;20333;-45
2022/06/10 03:07:02;;;;;;;11.88;6.30;;;;;;;18.65;100.00;101929.16;7396747;19;20025;-46
2022/06/10 03:09:44;;;;;;;10.55;5.65;;;;;;;18.45;100.00;101919.75;7395421;19;20022;-45
2022/06/10 03:12:21;;;;;;;12.63;7.22;;;;;;;18.42;100.00;101922.59;7397661;19;20010;-45
2022/06/10 03:15:01;;;;;;;15.65;7.93;;;;;;;18.45;100.00;101919.75;7398708;19;20010;-44
2022/06/10 03:17:40;;;;;;;11.05;6.35;;;;;;;18.46;100.00;101924.09;7399337;19;20015;-45
2022/06/10 03:20:16;;;;;;;12.40;6.25;;;;;;;18.78;100.00;101919.50;7399056;19;20019;-45
2022/06/10 03:23:01;;;;;;;11.63;5.97;;;;;;;18.52;100.00;101909.63;7397836;19;20128;-45
2022/06/10 03:25:36;;;;;;;13.07;5.47;;;;;;;18.81;100.00;101923.75;7397718;19;20018;-44
2022/06/10 03:28:12;;;;;;;13.30;5.70;;;;;;;18.80;100.00;101920.25;7398571;19;20467;-45
2022/06/10 03:30:45;;;;;;;11.45;5.70;;;;;;;19.00;100.00;101919.03;7398953;19;20014;-45
2022/06/10 03:33:18;;;;;;;9.48;5.40;;;;;;;18.99;100.00;101921.81;7397933;19;20014;-45
2022/06/10 03:35:52;;;;;;;14.77;5.78;;;;;;;18.98;100.00;101923.63;7396829;19;20060;-46
2022/06/10 03:38:24;;;;;;;9.48;5.30;;;;;;;18.86;100.00;101919.03;7397808;19;20022;-44
2022/06/10 03:40:55;;;;;;;13.17;5.63;;;;;;;18.93;100.00;101928.34;7396364;19;20056;-47
2022/06/10 03:43:26;;;;;;;12.77;5.43;;;;;;;18.94;100.00;101919.44;7398488;19;20011;-45
2022/06/10 03:46:02;;;;;;;12.00;5.43;;;;;;;19.12;100.00;101929.84;7395479;19;20019;-45
2022/06/10 03:48:36;;;;;;;12.20;5.20;;;;;;;19.01;100.00;101923.41;7397001;19;20018;-46
2022/06/10 03:51:08;;;;;;;12.95;4.60;;;;;;;18.99;100.00;101929.78;7398054;19;20021;-45
2022/06/10 03:53:41;;;;;;;12.65;4.45;;;;;;;19.23;100.00;101931.81;7398434;19;20011;-45
2022/06/10 03:56:10;;;;;;;11.05;3.67;;;;;;;18.91;100.00;101942.66;7394518;19;20013;-48
2022/06/10 03:58:39;;;;;;;13.13;4.72;;;;;;;19.29;100.00;101953.56;7396866;19;20018;-45
2022/06/10 04:01:08;;;;;;;13.75;4.82;;;;;;;19.45;100.00;101953.44;7396659;19;20018;-49
2022/06/10 04:03:37;;;;;;;12.50;4.57;;;;;;;18.82;100.00;101957.34;7396133;19;20021;-51
2022/06/10 04:06:06;;;;;;;12.25;4.65;;;;;;;18.33;100.00;101964.63;7394412;19;20034;-47
2022/06/10 04:08:35;;;;;;;9.85;4.38;;;;;;;18.35;100.00;101961.88;7395650;19;20025;-48
2022/06/10 04:11:07;;;;;;;11.40;4.70;;;;;;;18.33;100.00;101972.59;7395637;19;20018;-46
2022/06/10 04:13:36;;;;;;;14.02;5.35;;;;;;;18.53;100.00;101972.38;7396068;19;20015;-49
2022/06/10 04:16:06;;;;;;;14.20;4.78;;;;;;;18.90;100.00;101972.81;7394384;19;20018;-48
2022/06/10 04:18:34;;;;;;;15.38;5.28;;;;;;;18.53;100.00;101975.88;7394971;19;20026;-48
2022/06/10 04:21:03;;;;;;;12.75;5.00;;;;;;;17.85;100.00;101978.91;7394554;19;20021;-46
2022/06/10 04:23:32;;;;;;;13.20;5.82;;;;;;;17.76;100.00;101981.13;7394715;19;20021;-52
2022/06/10 04:26:01;;;;;;;12.15;4.93;;;;;;;18.00;100.00;101988.69;7393871;19;20447;-53
2022/06/10 04:28:33;;;;;;;10.93;5.07;;;;;;;18.37;100.00;101988.31;7394453;19;20006;-49
2022/06/10 04:31:02;;;;;;;16.95;5.28;;;;;;;17.86;100.00;101989.41;7396254;19;20029;-52
2022/06/10 04:33:33;;;;;;;17.60;5.60;;;;;;;18.47;100.00;101994.84;7395530;19;20419;-51
2022/06/10 04:36:02;;;;;;;13.23;4.75;;;;;;;18.14;100.00;101991.41;7392689;19;20018;-48
2022/06/10 04:38:32;;;;;;;12.63;5.43;;;;;;;18.45;100.00;102004.66;7393300;19;20365;-49
2022/06/10 04:41:05;;;;;;;18.75;5.68;;;;;;;17.95;100.00;101998.69;7394068;19;20014;-48
2022/06/10 04:43:37;;;;;;;14.50;6.00;;;;;;;18.04;100.00;101989.34;7393990;19;20015;-48
2022/06/10 04:46:08;;;;;;;9.90;5.30;;;;;;;17.94;100.00;101992.53;7392390;19;20029;-49
2022/06/10 04:48:38;;;;;;;14.07;6.45;;;;;;;18.36;100.00;101998.09;7392715;19;20018;-50
2022/06/10 04:51:07;;;;;;;16.95;6.85;;;;;;;18.42;100.00;101995.06;7393080;19;20022;-52
2022/06/10 04:53:36;;;;;;;12.25;6.53;;;;;;;18.55;100.00;101997.03;7393606;19;20483;-46
2022/06/10 04:56:05;;;;;;;12.85;6.18;;;;;;;18.11;100.00;102006.63;7391876;19;20018;-48
2022/06/10 04:58:36;;;;;;;18.27;6.88;;;;;;;17.84;100.00;101999.28;7392863;19;20014;-51
2022/06/10 05:01:05;;;;;;;15.38;6.93;;;;;;;17.92;100.00;101994.41;7393178;19;20442;-49
2022/06/10 05:03:35;;;;;;;15.00;7.18;;;;;;;18.41;100.00;101993.41;7393497;19;20018;-50
2022/06/10 05:06:04;;;;;;;15.48;7.60;;;;;;;18.16;100.00;101991.31;7392631;19;20018;-50
2022/06/10 05:08:33;;;;;;;18.33;7.35;;;;;;;18.27;100.00;101985.38;7392344;19;20479;-48
2022/06/10 05:11:02;;;;;;;16.92;7.93;;;;;;;18.17;100.00;102000.97;7393413;19;20015;-48
2022/06/10 05:13:31;;;;;;;18.38;7.90;;;;;;;18.44;100.00;101993.22;7392888;19;20025;-51
2022/06/10 05:16:02;;;;;;;15.00;7.40;;;;;;;17.74;100.00;101992.78;7391346;19;20030;-52
2022/06/10 05:18:31;;;;;;;17.60;8.20;;;;;;;17.93;100.00;101987.31;7392289;19;20030;-49
2022/06/10 05:21:00;;;;;;;17.17;7.85;;;;;;;18.51;100.00;101985.72;7392449;19;20010;-53
2022/06/10 05:23:30;;;;;;;14.65;8.13;;;;;;;17.85;100.00;101994.81;7392852;19;20364;-48
2022/06/10 05:25:59;;;;;;;21.55;8.95;;;;;;;18.21;100.00;101986.59;7391567;19;20022;-51
2022/06/10 05:28:28;;;;;;;14.88;7.65;;;;;;;18.27;100.00;101988.03;7390966;19;20007;-51
2022/06/10 05:30:57;;;;;;;29.48;9.93;;;;;;;18.56;100.00;101990.78;7392778;19;20389;-49
2022/06/10 05:34:44;;;;;;;28.23;10.80;;;;;;;18.45;100.00;101989.63;7392355;19;20022;-51
2022/06/10 05:36:19;;;;;;;21.63;9.63;;;;;;;18.73;100.00;101980.00;7391083;19;20015;-49
2022/06/10 05:38:49;;;;;;;15.48;8.13;;;;;;;19.00;100.00;101985.47;7391450;19;20480;-48
2022/06/10 05:44:00;;;;;;;22.17;9.15;;;;;;;18.84;100.00;101979.31;7392211;19;20023;-50
2022/06/10 05:46:28;;;;;;;14.55;7.20;;;;;;;18.69;100.00;101983.78;7390001;19;20018;-51
2022/06/10 05:49:00;;;;;;;34.70;11.50;;;;;;;18.92;100.00;101984.22;7389245;19;20033;-46
2022/06/10 05:51:29;;;;;;;20.88;9.60;;;;;;;19.05;100.00;101986.97;7391744;19;20015;-51
2022/06/10 05:53:58;;;;;;;15.77;8.30;;;;;;;18.95;100.00;101990.19;7391260;19;20018;-44
2022/06/10 05:56:28;;;;;;;14.98;8.27;;;;;;;19.13;100.00;101988.22;7390347;19;20010;-53
2022/06/10 05:58:56;;;;;;;15.00;7.28;;;;;;;18.64;100.00;101986.72;7390891;19;20046;-49
2022/06/10 06:01:25;;;;;;;12.05;6.75;;;;;;;18.75;100.00;101983.41;7391003;19;20014;-47
2022/06/10 06:03:54;;;;;;;14.63;6.78;;;;;;;18.64;100.00;101984.06;7389929;19;20015;-48
2022/06/10 06:06:26;;;;;;;16.63;6.82;;;;;;;18.82;100.00;101989.19;7390285;19;20491;-49
2022/06/10 06:08:55;;;;;;;13.50;6.50;;;;;;;18.43;100.00;101986.19;7390486;19;20010;-48
2022/06/10 06:11:24;;;;;;;12.57;6.18;;;;;;;18.49;100.00;101992.94;7390792;19;20015;-46
2022/06/10 06:13:53;;;;;;;13.02;6.05;;;;;;;18.79;100.00;101984.91;7391503;19;20125;-46
2022/06/10 06:16:22;;;;;;;11.25;5.20;;;;;;;18.70;100.00;101985.50;7389675;19;20018;-46
2022/06/10 06:18:52;;;;;;;14.52;6.47;;;;;;;19.09;100.00;101988.50;7391012;19;20034;-48
2022/06/10 06:21:21;;;;;;;12.48;6.43;;;;;;;19.27;100.00;101994.47;7390629;19;20089;-50
2022/06/10 06:23:53;;;;;;;18.50;7.25;;;;;;;19.62;100.00;101994.06;7391070;19;20018;-48
2022/06/10 06:26:21;;;;;;;34.40;9.73;;;;;;;19.77;100.00;101995.75;7388420;19;20030;-48
2022/06/10 06:28:50;;;;;;;18.13;6.65;;;;;;;19.92;100.00;102001.88;7389768;19;20026;-47
2022/06/10 06:31:19;;;;;;;14.00;5.95;;;;;;;19.65;100.00;102000.00;7390492;19;20026;-52
2022/06/10 06:33:48;;;;;;;12.77;5.63;;;;;;;19.96;100.00;102006.06;7390963;19;20018;-50
2022/06/10 06:36:22;;;;;;;12.32;6.13;;;;;;;20.05;100.00;102001.94;7388825;19;20018;-49
2022/06/10 06:38:54;;;;;;;15.23;6.18;;;;;;;19.84;100.00;102004.19;7390105;19;20018;-49
2022/06/10 06:41:23;;;;;;;11.77;5.73;;;;;;;19.78;100.00;102009.88;7389723;19;20019;-46
2022/06/10 06:43:52;;;;;;;15.68;5.97;;;;;;;19.97;100.00;101996.25;7390679;19;20654;-52
2022/06/10 06:46:22;;;;;;;15.80;6.10;;;;;;;19.76;100.00;102015.31;7386935;19;20014;-49
2022/06/10 06:48:54;;;;;;;17.73;6.35;;;;;;;19.83;100.00;102011.31;7389467;19;20018;-50
2022/06/10 06:51:23;;;;;;;22.30;6.38;;;;;;;19.84;100.00;102007.72;7390811;19;20025;-48
2022/06/10 06:53:54;;;;;;;16.13;6.63;;;;;;;20.09;100.00;102007.91;7389985;19;20015;-49
2022/06/10 06:56:23;;;;;;;11.38;5.25;;;;;;;19.98;100.00;102005.97;7388439;19;20496;-47
2022/06/10 06:58:52;;;;;;;18.17;5.65;;;;;;;20.38;100.00;102013.97;7389108;19;20014;-50
2022/06/10 07:01:21;;;;;;;19.17;6.90;;;;;;;20.46;100.00;102013.44;7389356;19;20011;-47
2022/06/10 07:03:50;;;;;;;16.13;6.75;;;;;;;20.17;100.00;102018.91;7390387;19;20023;-49
2022/06/10 07:06:19;;;;;;;13.95;5.70;;;;;;;20.20;100.00;102016.03;7387938;19;20034;-49
2022/06/10 07:08:49;;;;;;;12.73;5.85;;;;;;;20.11;100.00;102017.50;7389049;19;20019;-48
2022/06/10 07:11:20;;;;;;;14.10;5.82;;;;;;;20.13;100.00;102023.59;7387406;19;20103;-46
2022/06/10 07:13:49;;;;;;;16.88;6.40;;;;;;;20.18;100.00;102031.25;7389838;19;20029;-55
2022/06/10 07:16:18;;;;;;;15.82;5.75;;;;;;;19.40;100.00;102021.13;7391377;19;20018;-46
2022/06/10 07:18:47;;;;;;;23.52;6.60;;;;;;;20.03;100.00;102018.00;7396723;19;20458;-52
2022/06/10 07:21:16;;;;;;;11.63;5.78;;;;;;;20.08;100.00;102017.69;7397008;19;20467;-49
2022/06/10 07:23:45;;;;;;;13.93;6.07;;;;;;;20.04;100.00;102029.50;7396121;19;20018;-47
2022/06/10 07:26:15;;;;;;;13.77;6.60;;;;;;;20.25;100.00;102024.56;7394044;19;20021;-45
2022/06/10 07:28:47;;;;;;;10.98;5.70;;;;;;;19.87;100.00;102025.25;7396216;19;20036;-45
2022/06/10 07:31:15;;;;;;;8.98;4.75;;;;;;;20.21;100.00;102031.06;7393593;19;20015;-50
2022/06/10 07:33:44;;;;;;;11.43;5.10;;;;;;;20.02;100.00;102024.28;7396553;19;20014;-46
2022/06/10 07:36:13;;;;;;;10.45;4.20;;;;;;;19.81;100.00;102034.50;7395599;19;20021;-49
2022/06/10 07:38:42;;;;;;;14.98;4.93;;;;;;;19.81;100.00;102031.81;7398691;19;20021;-48
2022/06/10 07:43:55;;;;;;;9.70;4.10;;;;;;;20.25;100.00;102037.03;7397422;19;20019;-48
2022/06/10 07:46:25;;;;;;;11.52;4.85;;;;;;;20.09;100.00;102037.16;7393926;19;20022;-48
2022/06/10 07:48:54;;;;;;;10.88;4.15;;;;;;;20.07;100.00;102036.44;7394466;19;20022;-50
2022/06/10 07:51:23;;;;;;;10.50;4.32;;;;;;;20.37;100.00;102031.75;7370982;19;20029;-50
2022/06/10 07:53:53;;;;;;;8.43;3.95;;;;;;;20.51;100.00;102025.50;7394486;19;20017;-47
2022/06/10 07:56:23;;;;;;;12.60;4.43;;;;;;;20.65;100.00;102023.72;7396213;19;20094;-44
2022/06/10 07:58:58;;;;;;;10.63;4.10;;;;;;;20.50;100.00;102022.94;7400637;19;20363;-44
2022/06/10 08:01:28;;;;;;;10.02;3.95;;;;;;;20.85;100.00;102017.06;7397575;19;20014;-45
2022/06/10 08:03:58;;;;;;;11.02;5.03;;;;;;;21.06;100.00;102017.38;7397401;19;20459;-44
2022/06/10 08:06:28;;;;;;;11.25;3.70;;;;;;;20.89;100.00;102016.75;7396493;19;20030;-44
2022/06/10 08:08:58;;;;;;;11.38;3.85;;;;;;;20.83;100.00;102009.19;7395889;19;20014;-43
2022/06/10 08:11:27;;;;;;;10.25;3.92;;;;;;;21.08;100.00;102007.47;7395091;19;20021;-42
2022/06/10 08:13:58;;;;;;;11.32;3.47;;;;;;;21.44;100.00;102013.81;7397527;19;20018;-43
2022/06/10 08:16:27;;;;;;;12.35;3.78;;;;;;;21.94;100.00;102021.81;7395064;19;20037;-43
2022/06/10 08:18:56;;;;;;;12.23;3.10;;;;;;;21.87;100.00;102021.41;7395544;19;20017;-43
2022/06/10 08:24:07;;;;;;;12.05;3.80;;;;;;;21.69;100.00;102020.06;7394898;19;20021;-43
2022/06/10 08:26:37;;;;;;;9.68;3.10;;;;;;;21.59;100.00;102023.41;7394505;19;20367;-42
2022/06/10 08:29:08;;;;;;;13.00;3.88;;;;;;;21.84;100.00;102016.28;7395586;19;20034;-43
2022/06/10 08:31:37;;;;;;;9.40;3.13;;;;;;;21.99;100.00;102024.13;7394533;19;20018;-42
2022/06/10 08:34:07;;;;;;;9.88;2.67;;;;;;;21.91;100.00;102025.56;7396229;19;20026;-43
2022/06/10 08:36:37;;;;;;;8.98;3.10;;;;;;;21.24;100.00;102024.06;7394650;19;20363;-43
2022/06/10 08:39:06;;;;;;;11.80;3.63;;;;;;;21.66;100.00;102015.81;7395223;19;20388;-43
2022/06/10 08:41:48;;;;;;;14.63;3.25;;;;;;;21.64;100.00;102019.56;7396016;19;20018;-43
2022/06/10 08:44:32;;;;;;;11.80;3.30;;;;;;;21.50;100.00;102015.19;7395369;19;20015;-43
2022/06/10 08:47:20;;;;;;;6.07;2.90;;;;;;;21.38;100.00;102016.94;7393792;19;20032;-43
2022/06/10 08:50:08;;;;;;;7.43;2.70;;;;;;;21.95;100.00;102034.19;7395689;19;20340;-44
2022/06/10 08:52:45;;;;;;;10.30;3.05;;;;;;;21.63;100.00;102016.03;7394515;19;20018;-43
2022/06/10 08:55:28;;;;;;;7.32;2.65;;;;;;;21.69;100.00;102012.94;7397721;19;20086;-43
2022/06/10 08:58:00;;;;;;;10.68;2.80;;;;;;;21.88;100.00;102008.91;7394707;19;20030;-44
2022/06/10 09:00:36;;;;;;;8.60;2.67;;;;;;;22.43;100.00;102011.97;7393873;19;20022;-44
2022/06/10 09:03:10;;;;;;;6.28;2.53;;;;;;;22.22;99.36;102014.41;7394689;19;20021;-52
2022/06/10 09:05:45;;;;;;;6.05;2.58;;;;;;;21.72;100.00;102006.50;7392965;19;20026;-43
2022/06/10 09:08:17;;;;;;;12.18;3.00;;;;;;;22.21;100.00;102015.38;7393819;19;20026;-43
2022/06/10 09:10:53;;;;;;;6.85;3.03;;;;;;;22.48;100.00;102003.63;7394825;19;20022;-43
2022/06/10 09:13:30;;;;;;;9.20;3.30;;;;;;;22.95;99.71;102004.44;7395172;19;20074;-43
2022/06/10 09:16:10;;;;;;;9.07;2.88;;;;;;;22.70;100.00;102013.53;7394532;19;20053;-44
2022/06/10 09:18:50;;;;;;;7.72;2.78;;;;;;;22.12;99.32;102015.13;7394650;19;20019;-44
2022/06/10 09:21:27;;;;;;;9.95;2.90;;;;;;;22.54;100.00;102004.00;7394316;19;20431;-43
2022/06/10 09:24:00;;;;;;;9.75;3.10;;;;;;;22.55;97.04;102010.19;7394104;19;20343;-44
2022/06/10 09:26:36;;;;;;;10.75;2.63;;;;;;;22.78;97.90;102008.41;7366411;19;20014;-43
2022/06/10 09:29:05;;;;;;;8.07;2.60;;;;;;;22.03;100.00;102014.94;7393041;19;20017;-43
2022/06/10 09:31:41;;;;;;;8.18;2.33;;;;;;;22.02;100.00;102015.91;7392765;19;20018;-43
2022/06/10 09:34:22;;;;;;;8.68;3.00;;;;;;;21.98;98.50;102009.06;7395549;19;20360;-43
2022/06/10 09:37:02;;;;;;;9.73;2.65;;;;;;;22.45;94.18;102010.03;7394643;19;20011;-43
2022/06/10 09:42:35;;;;;;;10.70;2.90;;;;;;;23.17;93.05;102002.78;7402722;19;20034;-43
2022/06/10 09:45:11;;;;;;;10.98;3.28;;;;;;;22.95;92.75;101999.97;7404921;19;20022;-43
2022/06/10 09:47:57;;;;;;;8.82;2.90;;;;;;;23.36;94.69;102002.19;7400311;19;20336;-43
2022/06/10 09:50:34;;;;;;;12.45;3.15;;;;;;;23.59;91.42;101998.47;7400209;19;20022;-43
2022/06/10 09:53:20;;;;;;;9.60;3.00;;;;;;;23.56;91.95;102003.25;7400717;19;20018;-43
2022/06/10 09:56:05;;;;;;;8.05;2.30;;;;;;;22.99;94.81;102001.38;7399045;19;20078;-43
2022/06/10 09:58:52;;;;;;;10.38;2.78;;;;;;;23.32;89.67;102002.41;7398113;19;20050;-43
2022/06/10 10:01:33;;;;;;;8.63;2.53;;;;;;;23.67;94.52;101998.72;7399204;19;20078;-44
2022/06/10 10:04:30;;;;;;;6.88;2.85;;;;;;;23.69;91.92;102003.94;7398730;19;20020;-43
2022/06/10 10:07:05;;;;;;;7.20;3.08;;;;;;;22.96;87.65;102004.31;7398199;19;20029;-43
2022/06/10 10:09:48;;;;;;;6.93;2.80;;;;;;;23.29;94.83;101999.97;7401014;19;20014;-43
2022/06/10 10:12:26;;;;;;;6.60;3.00;;;;;;;23.77;89.67;102003.31;7398666;19;20021;-46
2022/06/10 10:15:08;;;;;;;12.00;3.20;;;;;;;24.39;89.83;101993.72;7403652;19;20014;-43
2022/06/10 10:17:59;;;;;;;9.20;2.80;;;;;;;23.76;86.52;102002.47;7402686;19;20140;-43
2022/06/10 10:20:42;;;;;;;15.20;3.45;;;;;;;24.19;88.12;101996.25;7402872;19;20483;-43
2022/06/10 10:23:15;;;;;;;10.55;3.22;;;;;;;23.67;84.76;102012.09;7400097;19;20015;-44
2022/06/10 10:25:47;;;;;;;11.25;3.20;;;;;;;23.72;86.56;102008.19;7395183;19;20014;-43
2022/06/10 10:28:21;;;;;;;10.05;3.15;;;;;;;23.52;87.81;102007.97;7395425;19;20022;-45
2022/06/10 10:31:04;;;;;;;7.72;2.72;;;;;;;23.79;87.96;101999.53;7394857;19;20022;-43
2022/06/10 10:33:33;;;;;;;7.70;3.10;;;;;;;23.68;85.01;102002.22;7403030;19;20014;-42
2022/06/10 10:36:22;;;;;;;7.18;3.03;;;;;;;23.38;89.25;102001.06;7399118;19;20018;-42
2022/06/10 10:38:53;;;;;;;9.30;3.38;;;;;;;23.54;88.97;102000.69;7398453;19;20021;-42
2022/06/10 10:41:38;;;;;;;7.57;2.67;;;;;;;23.65;90.39;101995.31;7396115;19;20021;-42
2022/06/10 10:44:10;;;;;;;10.70;2.70;;;;;;;24.23;88.74;101999.53;7393445;19;20627;-42
2022/06/10 10:46:42;;;;;;;9.73;3.03;;;;;;;23.59;85.42;102006.50;7395961;19;20463;-42
2022/06/10 10:49:26;;;;;;;9.77;3.30;;;;;;;24.17;86.52;101998.22;7393445;19;20471;-42
2022/06/10 10:51:58;;;;;;;9.95;3.30;;;;;;;24.47;88.58;101999.31;7397620;19;20041;-42
2022/06/10 10:54:33;;;;;;;12.65;3.42;;;;;;;24.15;85.91;102008.19;7399896;19;20482;-42
2022/06/10 10:57:03;;;;;;;11.88;3.80;;;;;;;23.35;86.88;102000.47;7397211;19;20019;-42
2022/06/10 10:59:36;;;;;;;9.43;3.28;;;;;;;23.47;87.01;102000.34;7399005;19;20029;-43
2022/06/10 11:02:36;;;;;;;11.00;3.45;;;;;;;23.98;86.69;101998.06;7399763;19;20022;-42
2022/06/10 11:05:26;;;;;;;7.82;3.15;;;;;;;24.76;87.92;101997.78;7398975;19;20018;-42
2022/06/10 11:08:21;;;;;;;10.65;3.63;;;;;;;24.11;82.58;102000.56;7399616;19;20019;-42
2022/06/10 11:11:17;;;;;;;13.10;3.83;;;;;;;24.34;85.02;101999.50;7398123;19;20011;-42
2022/06/10 11:13:50;;;;;;;14.52;4.40;;;;;;;23.96;82.68;101997.34;7398662;19;20706;-43
2022/06/10 11:16:36;;;;;;;17.15;4.38;;;;;;;24.26;88.26;102003.78;7397299;19;20014;-42
2022/06/10 11:19:15;;;;;;;14.27;4.53;;;;;;;24.49;85.50;102005.38;7398460;19;20019;-43
2022/06/10 11:21:57;;;;;;;12.20;4.32;;;;;;;24.25;86.40;102002.09;7399561;19;20017;-42
2022/06/10 11:24:31;;;;;;;8.98;4.13;;;;;;;23.47;88.64;102005.69;7399735;19;20018;-42
2022/06/10 11:27:03;;;;;;;10.98;3.88;;;;;;;23.98;85.57;102003.41;7398440;19;20423;-42
2022/06/10 11:29:32;;;;;;;10.77;3.65;;;;;;;23.42;90.57;102004.34;7398902;19;20451;-43
2022/06/10 11:32:04;;;;;;;118.70;21.58;;;;;;;24.18;91.62;102002.59;7397446;19;20006;-42
2022/06/10 11:34:38;;;;;;;12.82;5.47;;;;;;;23.88;85.95;102005.97;7399335;19;20216;-42
2022/06/10 11:37:24;;;;;;;12.02;4.13;;;;;;;24.09;88.48;102000.69;7396421;19;20011;-43
2022/06/10 11:40:04;;;;;;;12.02;4.05;;;;;;;23.62;91.50;102003.59;7397945;19;20360;-42
2022/06/10 11:42:40;;;;;;;11.15;4.00;;;;;;;23.97;90.75;101999.00;7398440;19;20007;-44
2022/06/10 11:45:18;;;;;;;12.10;3.80;;;;;;;24.34;90.20;102004.84;7398758;19;20014;-42
2022/06/10 11:47:52;;;;;;;10.68;4.00;;;;;;;24.08;92.14;102001.66;7398284;19;20074;-43
2022/06/10 11:50:27;;;;;;;10.60;4.15;;;;;;;23.85;90.57;101999.00;7396930;19;20048;-43
2022/06/10 11:53:04;;;;;;;12.88;4.60;;;;;;;24.21;86.16;101990.78;7394890;19;20014;-44
2022/06/10 11:55:43;;;;;;;10.82;4.03;;;;;;;24.21;86.69;101998.81;7396839;19;20010;-43
2022/06/10 12:01:06;;;;;;;13.25;4.45;;;;;;;24.20;87.07;101991.78;7396475;19;20015;-43
2022/06/10 12:03:40;;;;;;;11.43;4.85;;;;;;;25.04;85.12;101991.75;7397487;19;20015;-45